Forside
METAR-TAF:

METAR-TAF

Lufthavne :

John H. Batten Airport

Racine, Wisconsin, USA

Breddekreds: 42-45-31N, længdekreds: 087-49-04W, højde: 205 m

Aktuelle vejr

Denne rapport blev lavet for 27 minutter siden, kl. 13:27 UTC
Vind 11 kt fra nordnordøst
Temperatur 3°C
Fugtighed 87%
Tryk 1019 hPa
Sigt: 9.7 km
Brudte skyer i en højde af 900 ft
Overskyet i en højde af 1300 ft
dis

METAR: KRAC 311327Z AUTO 02011KT 6SM BR BKN009 OVC013 03/01 A3009 RMK AO2 CIG 007V012 T00280011

Tid: 08:54 (13:54 UTC)


TAF: fraværende

Vejrobservationer og prognoser fra mere end 4000 lufthavne (METAR og TAF).

De gule og røde prikker repræsenterer de meteorologiske stationer.

Flyt musen over at se navnet på stationen.

Så klik over at se vejr observationer og prognoser.

At skifte det kort: Klik på de grønne knapper med et sort kors for at zoome ind; på den grønne knap med en bindestreg for at zoome ud; eller på de grønne pile for tilstødende kort.


METAR-TAF: